EWG1MC EDDS-EDDF
Flight info
| Callsign | EWG1MC |
|---|---|
| Flight time | N/A |
| Altitude | 22000 |
| Route | ETASA4B/25 ETASA T163 SPESA SPESA4B |
| Aircraft | A319/M-SDE3FGHIRWY/LB1 |
Departure
| Time | 2026-05-06 18:15 |
|---|---|
| Airport | Stuttgart Airport (EDDS) |
Arrival
| Time | N/A |
|---|---|
| Airport | Frankfurt Main Airport (EDDF) |
| Time | Latitude | Longitude | Altitude | Speed | Heading |
|---|---|---|---|---|---|
| 2026-05-06 17:59 | 48.68965 | 9.20359 | 1291 ft | 0 kts | 164° |
| 2026-05-06 18:10 | 48.68964 | 9.20359 | 1285 ft | 1 kts | 164° |
| 2026-05-06 18:10 | 48.68948 | 9.20366 | 1287 ft | 6 kts | 164° |
| 2026-05-06 18:10 | 48.68915 | 9.20439 | 1287 ft | 13 kts | 80° |
| 2026-05-06 18:10 | 48.68948 | 9.20618 | 1290 ft | 22 kts | 74° |
| 2026-05-06 18:11 | 48.68992 | 9.20855 | 1290 ft | 25 kts | 74° |
| 2026-05-06 18:11 | 48.69043 | 9.21117 | 1286 ft | 27 kts | 74° |
| 2026-05-06 18:11 | 48.69098 | 9.21410 | 1288 ft | 30 kts | 74° |
| 2026-05-06 18:11 | 48.69160 | 9.21735 | 1285 ft | 34 kts | 73° |
| 2026-05-06 18:12 | 48.69229 | 9.22098 | 1285 ft | 38 kts | 74° |
| 2026-05-06 18:12 | 48.69301 | 9.22483 | 1285 ft | 34 kts | 74° |
| 2026-05-06 18:12 | 48.69367 | 9.22830 | 1287 ft | 35 kts | 73° |
| 2026-05-06 18:12 | 48.69400 | 9.23094 | 1285 ft | 18 kts | 108° |
| 2026-05-06 18:13 | 48.69302 | 9.23177 | 1289 ft | 16 kts | 164° |
| 2026-05-06 18:13 | 48.69198 | 9.23224 | 1288 ft | 15 kts | 169° |
| 2026-05-06 18:13 | 48.69174 | 9.23204 | 1285 ft | 0 kts | 251° |
| 2026-05-06 18:14 | 48.69134 | 9.22983 | 1289 ft | 60 kts | 255° |
| 2026-05-06 18:14 | 48.68965 | 9.22084 | 1287 ft | 116 kts | 254° |
| 2026-05-06 18:14 | 48.68697 | 9.20671 | 1428 ft | 153 kts | 253° |
| 2026-05-06 18:15 | 48.68408 | 9.19101 | 2098 ft | 156 kts | 252° |
| 2026-05-06 18:15 | 48.68046 | 9.17571 | 2911 ft | 152 kts | 248° |
| 2026-05-06 18:15 | 48.67621 | 9.16114 | 3551 ft | 159 kts | 248° |
| 2026-05-06 18:15 | 48.67266 | 9.14356 | 3870 ft | 187 kts | 255° |
| 2026-05-06 18:16 | 48.66918 | 9.12314 | 4270 ft | 213 kts | 258° |
| 2026-05-06 18:16 | 48.67064 | 9.10022 | 4968 ft | 232 kts | 294° |
| 2026-05-06 18:16 | 48.68088 | 9.08080 | 5945 ft | 241 kts | 310° |
| 2026-05-06 18:16 | 48.69424 | 9.06485 | 6824 ft | 255 kts | 330° |
| 2026-05-06 18:17 | 48.71162 | 9.05494 | 7472 ft | 275 kts | 339° |
| 2026-05-06 18:17 | 48.73001 | 9.04566 | 8388 ft | 282 kts | 340° |
| 2026-05-06 18:17 | 48.74880 | 9.03632 | 9336 ft | 287 kts | 340° |
| 2026-05-06 18:17 | 48.76803 | 9.02677 | 10125 ft | 299 kts | 341° |
| 2026-05-06 18:18 | 48.78938 | 9.02163 | 10465 ft | 326 kts | 357° |
| 2026-05-06 18:18 | 48.81271 | 9.02598 | 10737 ft | 352 kts | 15° |
| 2026-05-06 18:18 | 48.83646 | 9.03930 | 10914 ft | 376 kts | 19° |
| 2026-05-06 18:18 | 48.86229 | 9.05055 | 11046 ft | 397 kts | 12° |
| 2026-05-06 18:19 | 48.88982 | 9.05837 | 11473 ft | 407 kts | 8° |
| 2026-05-06 18:19 | 48.91807 | 9.06458 | 12084 ft | 412 kts | 7° |
| 2026-05-06 18:19 | 48.94658 | 9.07067 | 12746 ft | 417 kts | 7° |
| 2026-05-06 18:19 | 48.97534 | 9.07748 | 13418 ft | 421 kts | 8° |
| 2026-05-06 18:20 | 49.00441 | 9.08531 | 13981 ft | 425 kts | 9° |
| 2026-05-06 18:20 | 49.03356 | 9.09392 | 14563 ft | 428 kts | 11° |
| 2026-05-06 18:20 | 49.06294 | 9.10302 | 15060 ft | 433 kts | 11° |
| 2026-05-06 18:20 | 49.09256 | 9.11238 | 15619 ft | 436 kts | 11° |
| 2026-05-06 18:21 | 49.12234 | 9.12172 | 16163 ft | 439 kts | 11° |
| 2026-05-06 18:21 | 49.15245 | 9.13102 | 16665 ft | 443 kts | 11° |
| 2026-05-06 18:21 | 49.18272 | 9.14024 | 17209 ft | 445 kts | 11° |
| 2026-05-06 18:21 | 49.21326 | 9.14944 | 17426 ft | 447 kts | 11° |
| 2026-05-06 18:22 | 49.24353 | 9.15851 | 17063 ft | 443 kts | 11° |
| 2026-05-06 18:22 | 49.27343 | 9.16750 | 16660 ft | 443 kts | 11° |
| 2026-05-06 18:22 | 49.30356 | 9.17659 | 16246 ft | 441 kts | 11° |
| 2026-05-06 18:22 | 49.33358 | 9.18568 | 15832 ft | 438 kts | 11° |
| 2026-05-06 18:23 | 49.36337 | 9.19472 | 15422 ft | 436 kts | 11° |
| 2026-05-06 18:23 | 49.39297 | 9.20375 | 15028 ft | 431 kts | 10° |
| 2026-05-06 18:23 | 49.42234 | 9.21275 | 14633 ft | 429 kts | 11° |
| 2026-05-06 18:23 | 49.45145 | 9.22168 | 14241 ft | 426 kts | 10° |
| 2026-05-06 18:24 | 49.48043 | 9.23056 | 13858 ft | 423 kts | 11° |
| 2026-05-06 18:24 | 49.50926 | 9.23938 | 13493 ft | 421 kts | 10° |
| 2026-05-06 18:24 | 49.53786 | 9.24813 | 13219 ft | 419 kts | 11° |
| 2026-05-06 18:24 | 49.56639 | 9.25687 | 12939 ft | 417 kts | 10° |
| 2026-05-06 18:25 | 49.59485 | 9.26561 | 12703 ft | 416 kts | 10° |
| 2026-05-06 18:25 | 49.62315 | 9.27433 | 12433 ft | 414 kts | 10° |
| 2026-05-06 18:25 | 49.65131 | 9.28301 | 12170 ft | 412 kts | 10° |
| 2026-05-06 18:25 | 49.66084 | 9.28595 | 12084 ft | 412 kts | 10° |